createdAt,value
2023-02-06T00:00:49.047Z,49.03
2023-02-06T00:03:16.414Z,43.00
2023-02-06T00:05:43.830Z,59.38
2023-02-06T00:08:11.126Z,42.00
2023-02-06T00:10:38.383Z,51.75
2023-02-06T00:13:05.636Z,52.20
2023-02-06T00:15:34.020Z,40.60
2023-02-06T00:18:01.398Z,53.85
2023-02-06T00:20:28.669Z,61.63
2023-02-06T00:22:55.944Z,41.28
2023-02-06T00:25:23.309Z,54.80
2023-02-06T00:27:50.681Z,55.42
2023-02-06T00:30:18.124Z,43.05
2023-02-06T00:32:45.411Z,49.85
2023-02-06T00:35:12.680Z,54.80
2023-02-06T00:37:39.911Z,60.47
2023-02-06T00:40:08.181Z,68.82
2023-02-06T00:42:35.447Z,44.28
2023-02-06T00:45:02.705Z,61.72
2023-02-06T00:47:30.016Z,60.25
2023-02-06T00:49:57.406Z,45.10
2023-02-06T00:52:24.672Z,40.33
2023-02-06T00:54:52.022Z,47.05
2023-02-06T00:57:19.297Z,62.25
2023-02-06T00:59:46.638Z,45.70
2023-02-06T01:02:13.878Z,43.17
2023-02-06T01:04:41.122Z,48.72
2023-02-06T01:07:08.418Z,49.50
2023-02-06T01:09:35.671Z,46.75
2023-02-06T01:12:03.014Z,37.25
2023-02-06T01:14:30.262Z,36.78
2023-02-06T01:16:57.463Z,40.40
2023-02-06T01:19:24.764Z,80.35
2023-02-06T01:21:51.987Z,31.55
2023-02-06T01:24:19.205Z,28.77
2023-02-06T01:26:46.458Z,46.15
2023-02-06T01:29:13.718Z,31.50
2023-02-06T01:31:41.155Z,46.95
2023-02-06T01:34:08.419Z,38.58
2023-02-06T01:36:35.699Z,45.78
2023-02-06T01:39:03.026Z,33.30
2023-02-06T01:41:30.453Z,27.15
2023-02-06T01:44:17.994Z,33.70
2023-02-06T01:46:46.758Z,34.97
2023-02-06T01:49:37.389Z,34.58
2023-02-06T01:52:07.742Z,40.72
2023-02-06T01:54:35.394Z,42.85
2023-02-06T01:57:05.261Z,43.25
2023-02-06T01:59:32.566Z,30.55
2023-02-06T02:02:00.322Z,47.95
2023-02-06T02:04:29.196Z,35.90
2023-02-06T02:07:03.658Z,31.90
2023-02-06T02:09:30.915Z,36.97
2023-02-06T02:11:58.156Z,32.20
2023-02-06T02:14:25.403Z,49.97
2023-02-06T02:17:01.818Z,51.17
2023-02-06T02:19:54.272Z,45.72
2023-02-06T02:22:40.439Z,39.40
2023-02-06T02:25:28.038Z,43.30
2023-02-06T02:28:14.006Z,47.65
2023-02-06T02:30:48.785Z,39.22
2023-02-06T02:33:36.371Z,53.58
2023-02-06T02:36:03.586Z,53.58
2023-02-06T02:38:49.632Z,53.72
2023-02-06T02:41:23.150Z,57.70
2023-02-06T02:43:50.372Z,41.58
2023-02-06T02:46:17.632Z,48.33
2023-02-06T02:48:46.836Z,48.53
2023-02-06T02:51:18.121Z,52.88
2023-02-06T02:53:45.865Z,41.95
2023-02-06T02:56:17.115Z,49.58
2023-02-06T02:58:44.999Z,43.88
2023-02-06T03:01:17.851Z,49.20
2023-02-06T03:03:45.772Z,55.55
2023-02-06T03:06:26.263Z,49.53
2023-02-06T03:08:59.739Z,62.40
2023-02-06T03:11:27.393Z,60.08
2023-02-06T03:13:56.485Z,45.80
2023-02-06T03:16:28.396Z,56.75
2023-02-06T03:19:11.305Z,53.50
2023-02-06T03:21:39.213Z,50.35
2023-02-06T03:24:14.446Z,43.30
2023-02-06T03:26:43.042Z,58.08
2023-02-06T03:29:12.415Z,62.05
2023-02-06T03:31:48.124Z,50.25
2023-02-06T03:34:26.156Z,71.72
2023-02-06T03:36:53.849Z,72.05
2023-02-06T03:39:21.820Z,60.22
2023-02-06T03:41:50.240Z,44.78
2023-02-06T03:44:23.412Z,61.10
2023-02-06T03:49:19.570Z,65.18
2023-02-06T03:51:49.683Z,57.03
2023-02-06T03:54:19.945Z,86.63
2023-02-06T03:56:53.945Z,75.90
2023-02-06T03:59:21.588Z,85.55
2023-02-06T04:01:51.181Z,79.38
2023-02-06T04:04:19.678Z,57.67
2023-02-06T04:06:49.681Z,76.55
2023-02-06T04:09:26.128Z,76.90
2023-02-06T04:11:53.606Z,71.00
2023-02-06T04:14:21.047Z,67.88
2023-02-06T04:16:51.039Z,71.72
2023-02-06T04:19:23.545Z,84.65
2023-02-06T04:21:53.878Z,79.70
2023-02-06T04:24:21.425Z,86.15
2023-02-06T04:26:48.788Z,79.63
2023-02-06T04:29:19.607Z,63.83
2023-02-06T04:31:46.999Z,54.85
2023-02-06T04:34:14.463Z,65.38
2023-02-06T04:36:41.782Z,56.80
2023-02-06T04:39:09.452Z,74.05
2023-02-06T04:41:36.919Z,82.25
2023-02-06T04:44:04.245Z,83.13
2023-02-06T04:46:31.531Z,83.63
2023-02-06T04:48:58.784Z,63.65
2023-02-06T04:51:26.128Z,64.28
2023-02-06T04:53:54.966Z,54.60
2023-02-06T04:56:22.504Z,69.32
2023-02-06T04:58:49.914Z,78.20
2023-02-06T05:01:17.965Z,59.50
2023-02-06T05:03:45.232Z,91.20
2023-02-06T05:06:12.696Z,114.75
2023-02-06T05:08:40.357Z,91.65
2023-02-06T05:11:10.432Z,134.48
2023-02-06T05:13:37.822Z,96.13
2023-02-06T05:16:08.193Z,124.82
2023-02-06T05:18:38.502Z,130.13
2023-02-06T05:21:06.350Z,102.63
2023-02-06T05:23:34.061Z,107.30
2023-02-06T05:26:01.386Z,117.50
2023-02-06T05:28:30.046Z,92.78
2023-02-06T05:30:58.092Z,93.97
2023-02-06T05:33:25.473Z,134.35
2023-02-06T05:35:52.673Z,124.32
2023-02-06T05:38:20.195Z,84.03
2023-02-06T05:40:50.844Z,108.32
2023-02-06T05:43:18.087Z,125.65
2023-02-06T05:45:45.438Z,109.75
2023-02-06T05:48:12.689Z,132.70
2023-02-06T05:50:41.273Z,91.90
2023-02-06T05:53:09.782Z,100.28
2023-02-06T05:55:37.336Z,104.05
2023-02-06T06:01:16.580Z,102.75
2023-02-06T06:03:43.871Z,111.50
2023-02-06T06:06:11.112Z,141.40
2023-02-06T06:08:38.474Z,89.53
2023-02-06T06:11:05.970Z,132.38
2023-02-06T06:13:35.853Z,134.02
2023-02-06T06:16:03.321Z,132.70
2023-02-06T06:18:30.659Z,118.00
2023-02-06T06:20:57.950Z,102.25
2023-02-06T06:23:25.186Z,119.55
2023-02-06T06:25:52.490Z,86.10
2023-02-06T06:28:19.849Z,86.82
2023-02-06T06:30:47.219Z,97.68
2023-02-06T06:33:16.531Z,116.00
2023-02-06T06:35:43.847Z,102.43
2023-02-06T06:38:11.108Z,102.32
2023-02-06T06:40:39.912Z,89.63
2023-02-06T06:43:07.559Z,132.05
2023-02-06T06:45:36.207Z,132.63
2023-02-06T06:48:04.041Z,98.97
2023-02-06T06:50:31.598Z,139.80
2023-02-06T06:52:58.880Z,111.22
2023-02-06T06:55:26.226Z,81.75
2023-02-06T06:57:53.749Z,116.68
2023-02-06T07:00:23.169Z,133.95
2023-02-06T07:02:50.652Z,144.15
2023-02-06T07:05:18.377Z,111.75
2023-02-06T07:07:45.960Z,133.13
2023-02-06T07:10:13.995Z,101.50
2023-02-06T07:13:36.565Z,144.15
2023-02-06T07:16:04.257Z,151.57
2023-02-06T07:18:34.254Z,112.40
2023-02-06T07:21:03.010Z,143.82
2023-02-06T07:23:33.063Z,120.10
2023-02-06T07:26:10.946Z,104.60
2023-02-06T07:28:42.763Z,113.82
2023-02-06T07:31:11.541Z,105.53
2023-02-06T07:33:44.433Z,99.43
2023-02-06T07:36:18.853Z,127.25
2023-02-06T07:38:49.183Z,94.25
2023-02-06T07:41:18.084Z,100.35
2023-02-06T07:43:52.936Z,100.95
2023-02-06T07:46:28.400Z,118.10
2023-02-06T07:48:57.197Z,92.90
2023-02-06T07:51:24.596Z,136.55
2023-02-06T07:53:52.092Z,99.25
2023-02-06T07:56:20.441Z,145.10
2023-02-06T07:58:51.808Z,113.63
2023-02-06T08:01:20.616Z,107.90
2023-02-06T08:03:54.641Z,109.80
2023-02-06T08:09:08.804Z,140.52
2023-02-06T08:11:36.348Z,105.60
2023-02-06T08:14:03.566Z,105.40
2023-02-06T08:16:31.047Z,137.63
2023-02-06T08:18:58.385Z,151.73
2023-02-06T08:21:26.084Z,150.27
2023-02-06T08:23:57.181Z,160.05
2023-02-06T08:26:24.945Z,126.50
2023-02-06T08:28:53.233Z,102.47
2023-02-06T08:31:21.934Z,114.78
2023-02-06T08:33:49.513Z,137.23
2023-02-06T08:36:17.628Z,143.93
2023-02-06T08:38:45.351Z,141.15
2023-02-06T08:41:32.799Z,129.93
2023-02-06T08:44:01.384Z,154.15
2023-02-06T08:46:29.691Z,168.73
2023-02-06T08:48:57.999Z,112.30
2023-02-06T08:51:28.051Z,119.63
2023-02-06T08:53:59.280Z,122.25
2023-02-06T08:56:26.976Z,90.90
2023-02-06T08:58:54.355Z,95.07
2023-02-06T09:01:22.205Z,114.85
2023-02-06T09:03:49.686Z,108.72
2023-02-06T09:06:18.749Z,92.25
2023-02-06T09:08:46.068Z,88.30
2023-02-06T09:11:15.881Z,167.30
2023-02-06T09:13:43.911Z,161.57
2023-02-06T09:16:12.286Z,161.70
2023-02-06T09:18:40.071Z,105.50
2023-02-06T09:21:17.675Z,127.45
2023-02-06T09:23:46.929Z,193.15
2023-02-06T09:26:15.771Z,145.93
2023-02-06T09:28:43.308Z,96.93
2023-02-06T09:31:11.371Z,169.73
2023-02-06T09:33:39.438Z,158.52
2023-02-06T09:36:17.024Z,117.80
2023-02-06T09:38:46.969Z,117.53
2023-02-06T09:41:25.476Z,110.03
2023-02-06T09:43:54.262Z,203.68
2023-02-06T09:46:27.516Z,171.30
2023-02-06T09:48:56.109Z,139.27
2023-02-06T09:51:40.213Z,144.57
2023-02-06T09:54:13.748Z,120.93
2023-02-06T09:56:47.906Z,111.38
2023-02-06T09:59:38.068Z,116.82
2023-02-06T10:02:24.096Z,182.50
2023-02-06T10:04:58.166Z,125.95
2023-02-06T10:07:46.529Z,126.80
2023-02-06T10:10:17.229Z,120.00
2023-02-06T10:13:05.915Z,154.32
2023-02-06T10:15:41.741Z,148.90
2023-02-06T10:18:27.788Z,144.93
2023-02-06T10:20:58.706Z,107.82
2023-02-06T10:23:32.099Z,150.68
2023-02-06T10:26:08.265Z,117.78
2023-02-06T10:28:35.629Z,124.88
2023-02-06T10:31:02.901Z,111.25
2023-02-06T10:33:33.255Z,92.22
2023-02-06T10:36:19.294Z,94.72
2023-02-06T10:39:06.041Z,73.47
2023-02-06T10:41:52.218Z,106.05
2023-02-06T10:44:31.874Z,75.35
2023-02-06T10:47:00.942Z,65.40
2023-02-06T10:49:32.661Z,55.45
2023-02-06T10:52:01.981Z,61.10
2023-02-06T10:54:31.206Z,65.93
2023-02-06T10:56:59.725Z,52.22
2023-02-06T10:59:29.815Z,68.78
2023-02-06T11:02:03.001Z,64.10
2023-02-06T11:07:02.044Z,57.03
2023-02-06T11:09:29.256Z,65.28
2023-02-06T11:11:57.884Z,73.45
2023-02-06T11:14:27.296Z,48.75
2023-02-06T11:16:55.094Z,60.58
2023-02-06T11:19:38.293Z,60.17
2023-02-06T11:22:07.349Z,44.63
2023-02-06T11:24:35.518Z,42.05
2023-02-06T11:27:04.825Z,46.70
2023-02-06T11:29:37.119Z,53.15
2023-02-06T11:32:06.243Z,46.97
2023-02-06T11:34:40.231Z,52.90
2023-02-06T11:37:27.416Z,47.00
2023-02-06T11:39:54.727Z,43.58
2023-02-06T11:42:26.628Z,41.20
2023-02-06T11:44:54.216Z,55.95
2023-02-06T11:47:29.569Z,41.20
2023-02-06T11:49:59.127Z,49.45
2023-02-06T11:52:30.921Z,49.92
2023-02-06T11:55:02.276Z,55.28
2023-02-06T11:57:34.168Z,35.55
2023-02-06T12:00:06.106Z,39.38
2023-02-06T12:02:35.004Z,38.20
2023-02-06T12:05:13.306Z,52.83
2023-02-06T12:07:50.901Z,57.47
2023-02-06T12:10:23.563Z,38.28
2023-02-06T12:12:57.422Z,33.72
2023-02-06T12:15:46.195Z,44.72
2023-02-06T12:18:16.724Z,42.60
2023-02-06T12:20:55.074Z,36.88
2023-02-06T12:23:28.407Z,43.22
2023-02-06T12:25:57.757Z,37.95
2023-02-06T12:28:28.205Z,30.58
2023-02-06T12:30:57.255Z,23.88
2023-02-06T12:33:33.802Z,29.38
2023-02-06T12:36:12.142Z,34.72
2023-02-06T12:38:56.966Z,28.10
2023-02-06T12:41:41.741Z,23.30
2023-02-06T12:44:29.568Z,20.50
2023-02-06T12:47:21.412Z,24.35
2023-02-06T12:50:04.330Z,14.95
2023-02-06T12:52:59.057Z,13.70
2023-02-06T12:55:38.113Z,15.48
2023-02-06T12:58:06.656Z,16.45
2023-02-06T13:00:51.106Z,15.57
2023-02-06T13:03:27.267Z,14.07
2023-02-06T13:05:55.807Z,19.05
2023-02-06T13:08:37.150Z,19.50
2023-02-06T13:11:08.086Z,20.52
2023-02-06T13:13:42.748Z,18.98
2023-02-06T13:16:10.884Z,21.88
2023-02-06T13:18:51.843Z,15.40
2023-02-06T13:21:20.736Z,17.15
2023-02-06T13:24:03.143Z,20.13
2023-02-06T13:26:56.528Z,18.58
2023-02-06T13:29:40.637Z,16.08
2023-02-06T13:32:22.485Z,18.20
2023-02-06T13:34:51.936Z,13.45
2023-02-06T13:37:44.516Z,17.98
2023-02-06T13:40:28.250Z,12.90
2023-02-06T13:43:18.855Z,13.73
2023-02-06T13:45:59.743Z,14.05
2023-02-06T13:48:46.792Z,16.38
2023-02-06T13:51:15.484Z,14.02
2023-02-06T13:53:42.704Z,15.95
2023-02-06T13:56:44.548Z,16.38
2023-02-06T13:59:34.986Z,14.30
2023-02-06T14:02:13.370Z,16.10
2023-02-06T14:04:43.480Z,12.82
2023-02-06T14:07:19.518Z,14.27
2023-02-06T14:10:08.916Z,13.85
2023-02-06T14:12:44.622Z,14.23
2023-02-06T14:15:12.475Z,15.57
2023-02-06T14:17:39.892Z,14.48
2023-02-06T14:20:12.277Z,14.48
2023-02-06T14:22:55.678Z,14.40
2023-02-06T14:27:51.132Z,11.13
2023-02-06T14:30:36.442Z,14.98
2023-02-06T14:33:33.414Z,12.55
2023-02-06T14:36:16.343Z,14.25
2023-02-06T14:39:03.801Z,11.75
2023-02-06T14:41:34.914Z,11.65
2023-02-06T14:44:03.675Z,15.65
2023-02-06T14:46:33.175Z,13.40
2023-02-06T14:49:00.900Z,11.25
2023-02-06T14:51:35.539Z,14.70
2023-02-06T14:54:04.801Z,14.32
2023-02-06T14:56:37.544Z,22.63
2023-02-06T14:59:16.681Z,10.45
2023-02-06T15:01:48.301Z,9.98
2023-02-06T15:04:24.124Z,12.60
2023-02-06T15:06:54.483Z,14.57
2023-02-06T15:09:24.877Z,13.35
2023-02-06T15:11:53.202Z,9.50
2023-02-06T15:14:25.881Z,8.82
2023-02-06T15:16:53.235Z,8.90
2023-02-06T15:19:22.788Z,8.85
2023-02-06T15:21:50.775Z,9.43
2023-02-06T15:24:18.116Z,9.82
2023-02-06T15:27:14.804Z,9.52
2023-02-06T15:29:47.445Z,7.78
2023-02-06T15:32:22.762Z,7.72
2023-02-06T15:34:50.165Z,7.47
2023-02-06T15:37:21.956Z,8.85
2023-02-06T15:39:49.736Z,7.35
2023-02-06T15:42:17.309Z,7.75
2023-02-06T15:44:44.807Z,7.18
2023-02-06T15:47:15.182Z,9.05
2023-02-06T15:49:47.029Z,9.57
2023-02-06T15:52:15.704Z,9.50
2023-02-06T15:54:45.243Z,9.82
2023-02-06T15:57:21.747Z,10.85
2023-02-06T15:59:49.143Z,11.13
2023-02-06T16:02:24.097Z,10.00
2023-02-06T16:04:52.672Z,11.68
2023-02-06T16:07:22.265Z,10.73
2023-02-06T16:10:03.860Z,9.38
2023-02-06T16:12:38.843Z,10.93
2023-02-06T16:15:26.410Z,10.82
2023-02-06T16:17:53.846Z,10.65
2023-02-06T16:20:33.206Z,12.10
2023-02-06T16:23:20.816Z,12.30
2023-02-06T16:25:49.080Z,15.38
2023-02-06T16:28:22.924Z,14.32
2023-02-06T16:31:04.852Z,13.65
2023-02-06T16:33:38.234Z,13.95
2023-02-06T16:36:05.633Z,15.10
2023-02-06T16:38:33.266Z,16.20
2023-02-06T16:41:00.750Z,15.15
2023-02-06T16:43:28.736Z,18.98
2023-02-06T16:46:02.363Z,15.18
2023-02-06T16:48:29.624Z,18.05
2023-02-06T16:50:56.829Z,21.50
2023-02-06T16:53:24.664Z,22.73
2023-02-06T16:55:52.266Z,34.08
2023-02-06T16:58:21.959Z,25.75
2023-02-06T17:00:49.502Z,37.05
2023-02-06T17:03:17.818Z,35.90
2023-02-06T17:05:45.884Z,43.92
2023-02-06T17:08:21.675Z,46.30
2023-02-06T17:10:49.049Z,26.38
2023-02-06T17:13:17.387Z,29.42
2023-02-06T17:15:47.153Z,32.28
2023-02-06T17:18:15.797Z,20.33
2023-02-06T17:20:44.324Z,25.13
2023-02-06T17:23:12.021Z,26.48
2023-02-06T17:25:40.134Z,24.65
2023-02-06T17:28:07.891Z,25.58
2023-02-06T17:30:35.898Z,29.67
2023-02-06T17:33:03.649Z,36.47
2023-02-06T17:35:31.281Z,36.97
2023-02-06T17:37:58.812Z,32.17
2023-02-06T17:40:27.789Z,35.45
2023-02-06T17:42:55.273Z,43.47
2023-02-06T17:45:22.664Z,40.75
2023-02-06T17:47:49.902Z,44.47
2023-02-06T17:50:18.295Z,53.53
2023-02-06T17:52:45.953Z,55.38
2023-02-06T17:55:13.598Z,42.88
2023-02-06T17:57:41.237Z,56.00
2023-02-06T18:00:10.182Z,60.03
2023-02-06T18:02:37.927Z,48.20
2023-02-06T18:05:06.045Z,58.10
2023-02-06T18:07:33.305Z,51.22
2023-02-06T18:10:00.582Z,69.78
2023-02-06T18:12:27.853Z,71.22
2023-02-06T18:14:58.394Z,54.38
2023-02-06T18:17:25.789Z,66.10
2023-02-06T18:19:53.201Z,59.47
2023-02-06T18:22:21.864Z,75.97
2023-02-06T18:24:50.010Z,71.93
2023-02-06T18:27:17.888Z,55.95
2023-02-06T18:29:50.156Z,74.88
2023-02-06T18:32:18.266Z,75.68
2023-02-06T18:34:45.666Z,80.72
2023-02-06T18:37:13.323Z,64.90
2023-02-06T18:39:40.549Z,81.97
2023-02-06T18:42:26.560Z,72.32
2023-02-06T18:44:53.877Z,98.95
2023-02-06T18:47:21.143Z,102.22
2023-02-06T18:49:48.524Z,93.15
2023-02-06T18:52:16.507Z,75.43
2023-02-06T18:54:43.783Z,71.05
2023-02-06T18:57:11.091Z,95.07
2023-02-06T18:59:38.657Z,84.40
2023-02-06T19:02:05.926Z,93.70
2023-02-06T19:04:35.493Z,94.75
2023-02-06T19:07:02.824Z,92.20
2023-02-06T19:09:30.145Z,63.00
2023-02-06T19:11:57.396Z,68.20
2023-02-06T19:14:25.479Z,94.85
2023-02-06T19:16:53.292Z,67.72
2023-02-06T19:19:20.680Z,78.78
2023-02-06T19:21:48.178Z,77.00
2023-02-06T19:24:16.491Z,76.30
2023-02-06T19:26:43.777Z,114.68
2023-02-06T19:29:12.254Z,114.28
2023-02-06T19:31:40.664Z,116.68
2023-02-06T19:34:07.994Z,86.18
2023-02-06T19:36:36.018Z,111.03
2023-02-06T19:39:04.982Z,117.13
2023-02-06T19:41:33.018Z,97.80
2023-02-06T19:44:03.003Z,87.03
2023-02-06T19:46:30.350Z,73.07
2023-02-06T19:48:57.759Z,112.38
2023-02-06T19:51:26.313Z,120.05
2023-02-06T19:53:54.399Z,112.35
2023-02-06T19:56:23.374Z,115.57
2023-02-06T19:58:57.632Z,93.45
2023-02-06T20:01:25.671Z,87.55
2023-02-06T20:03:53.068Z,121.75
2023-02-06T20:06:20.542Z,126.78
2023-02-06T20:08:47.983Z,98.78
2023-02-06T20:11:16.856Z,136.70
2023-02-06T20:13:44.738Z,100.28
2023-02-06T20:16:31.783Z,143.68
2023-02-06T20:18:59.581Z,164.50
2023-02-06T20:21:27.977Z,86.93
2023-02-06T20:23:56.244Z,100.40
2023-02-06T20:26:25.043Z,117.90
2023-02-06T20:28:52.785Z,148.25
2023-02-06T20:31:20.524Z,119.43
2023-02-06T20:33:47.914Z,169.02
2023-02-06T20:36:16.610Z,135.88
2023-02-06T20:38:47.637Z,158.07
2023-02-06T20:41:14.848Z,149.20
2023-02-06T20:43:42.316Z,121.38
2023-02-06T20:46:10.664Z,134.68
2023-02-06T20:48:37.996Z,197.85
2023-02-06T20:51:06.081Z,161.07
2023-02-06T20:53:33.395Z,168.55
2023-02-06T20:56:02.792Z,189.98
2023-02-06T20:58:30.613Z,211.43
2023-02-06T21:00:58.248Z,206.13
2023-02-06T21:03:26.700Z,153.23
2023-02-06T21:05:57.882Z,203.00
2023-02-06T21:08:25.681Z,143.07
2023-02-06T21:10:53.480Z,185.45
2023-02-06T21:13:20.703Z,153.73
2023-02-06T21:15:54.848Z,200.38
2023-02-06T21:18:26.570Z,183.10
2023-02-06T21:20:54.766Z,184.60
2023-02-06T21:23:25.154Z,135.40
2023-02-06T21:25:53.223Z,191.02
2023-02-06T21:28:20.852Z,186.30
2023-02-06T21:30:49.459Z,200.93
2023-02-06T21:33:17.195Z,195.82
2023-02-06T21:35:51.645Z,202.55
2023-02-06T21:38:19.536Z,211.05
2023-02-06T21:40:47.159Z,204.02
2023-02-06T21:43:17.343Z,206.75
2023-02-06T21:45:45.077Z,161.75
2023-02-06T21:48:12.285Z,159.13
2023-02-06T21:50:40.268Z,213.13
2023-02-06T21:53:08.558Z,249.30
2023-02-06T21:55:36.086Z,217.95
2023-02-06T21:58:03.580Z,237.45
2023-02-06T22:00:30.803Z,218.65
2023-02-06T22:02:58.115Z,220.68
2023-02-06T22:05:25.360Z,196.45
2023-02-06T22:07:52.592Z,183.80
2023-02-06T22:10:19.916Z,261.88
2023-02-06T22:12:50.490Z,282.80
2023-02-06T22:15:17.804Z,285.90
2023-02-06T22:17:45.010Z,213.00
2023-02-06T22:20:13.432Z,207.90
2023-02-06T22:22:42.775Z,213.75
2023-02-06T22:25:11.777Z,209.48
2023-02-06T22:27:39.155Z,210.27
2023-02-06T22:30:07.942Z,220.25
2023-02-06T22:32:38.578Z,268.38
2023-02-06T22:35:06.109Z,274.27
2023-02-06T22:37:34.273Z,365.40
2023-02-06T22:40:01.559Z,272.00
2023-02-06T22:42:28.803Z,266.73
2023-02-06T22:44:56.377Z,143.73
2023-02-06T22:47:23.617Z,184.63
2023-02-06T22:49:52.538Z,174.73
2023-02-06T22:52:38.693Z,257.98
2023-02-06T22:55:06.407Z,198.98
2023-02-06T22:57:35.327Z,259.75
2023-02-06T23:00:02.575Z,211.10
2023-02-06T23:02:29.817Z,279.85
2023-02-06T23:04:57.558Z,286.15
2023-02-06T23:07:24.830Z,273.90
2023-02-06T23:09:52.101Z,267.77
2023-02-06T23:12:19.314Z,221.50
2023-02-06T23:14:46.553Z,256.92
2023-02-06T23:17:13.782Z,142.30
2023-02-06T23:19:40.971Z,141.52
2023-02-06T23:22:10.578Z,139.40
2023-02-06T23:24:37.796Z,123.30
2023-02-06T23:27:05.025Z,132.88
2023-02-06T23:29:32.217Z,134.32
2023-02-06T23:31:59.418Z,96.70
2023-02-06T23:34:26.658Z,90.07
2023-02-06T23:36:54.057Z,95.82
2023-02-06T23:39:21.378Z,89.18
2023-02-06T23:41:48.508Z,80.97
2023-02-06T23:44:15.753Z,80.75
2023-02-06T23:46:43.048Z,75.28
2023-02-06T23:49:10.449Z,106.90
2023-02-06T23:51:38.148Z,83.53
2023-02-06T23:54:06.372Z,119.72
2023-02-06T23:56:33.960Z,92.28
2023-02-06T23:59:02.077Z,130.10
